Betania, Argentina
Current Conditions -  °F | °C
As of 11:00 AM on Monday 24 Nov 2014 (Local Time) from SASJ Reporting Station
Few Clouds Few Clouds  
Wind Chill: 79°   Ceiling: Unl
Heat Index: 80°   Visibility: 6mi
Dew Point: 61°   Wind: 3mph
Humidity: 54%   Direction: 110°ESE
Pressure: 29.8"   Gusts: NA
Location:  24.68°S, 65.12°W
Report Text: SASJ 241400Z 11003KT 060V210 9999 FEW03026/16 Q1009
Loading
Personal Weather Stations






























Interactive Weather Map New forecast layout! Learn more

10-Day Weather Forecast

Advertisements
Track Severe Weather on mobile